sensor_id;sensor_type;location;lat;lon;timestamp;P1;durP1;ratioP1;P2;durP2;ratioP2
19193;SDS011;9729;52.296;13.260;2023-06-26T00:00:59;15.80;;;14.17;;
19193;SDS011;9729;52.296;13.260;2023-06-26T00:03:26;18.87;;;15.17;;
19193;SDS011;9729;52.296;13.260;2023-06-26T00:05:54;17.73;;;15.83;;
19193;SDS011;9729;52.296;13.260;2023-06-26T00:08:25;19.00;;;15.87;;
19193;SDS011;9729;52.296;13.260;2023-06-26T00:10:52;18.90;;;15.47;;
19193;SDS011;9729;52.296;13.260;2023-06-26T00:13:18;18.70;;;16.27;;
19193;SDS011;9729;52.296;13.260;2023-06-26T00:15:46;19.40;;;15.70;;
19193;SDS011;9729;52.296;13.260;2023-06-26T00:18:12;18.63;;;15.23;;
19193;SDS011;9729;52.296;13.260;2023-06-26T00:20:39;21.23;;;16.43;;
19193;SDS011;9729;52.296;13.260;2023-06-26T00:23:05;21.53;;;16.10;;
19193;SDS011;9729;52.296;13.260;2023-06-26T00:25:32;19.13;;;15.57;;
19193;SDS011;9729;52.296;13.260;2023-06-26T00:27:58;23.43;;;16.70;;
19193;SDS011;9729;52.296;13.260;2023-06-26T00:30:25;18.77;;;15.93;;
19193;SDS011;9729;52.296;13.260;2023-06-26T00:32:52;18.17;;;15.57;;
19193;SDS011;9729;52.296;13.260;2023-06-26T00:35:19;17.90;;;15.27;;
19193;SDS011;9729;52.296;13.260;2023-06-26T00:37:46;18.30;;;15.27;;
19193;SDS011;9729;52.296;13.260;2023-06-26T00:40:12;22.37;;;17.13;;
19193;SDS011;9729;52.296;13.260;2023-06-26T00:42:38;18.43;;;15.90;;
19193;SDS011;9729;52.296;13.260;2023-06-26T00:45:05;21.27;;;15.63;;
19193;SDS011;9729;52.296;13.260;2023-06-26T00:47:32;19.97;;;15.97;;
19193;SDS011;9729;52.296;13.260;2023-06-26T00:50:00;21.07;;;16.50;;
19193;SDS011;9729;52.296;13.260;2023-06-26T00:52:26;19.40;;;16.83;;
19193;SDS011;9729;52.296;13.260;2023-06-26T00:54:52;20.23;;;17.30;;
19193;SDS011;9729;52.296;13.260;2023-06-26T00:57:19;26.03;;;18.53;;
19193;SDS011;9729;52.296;13.260;2023-06-26T00:59:45;21.00;;;16.93;;
19193;SDS011;9729;52.296;13.260;2023-06-26T01:02:11;19.70;;;17.47;;
19193;SDS011;9729;52.296;13.260;2023-06-26T01:04:44;18.83;;;16.73;;
19193;SDS011;9729;52.296;13.260;2023-06-26T01:07:13;20.20;;;16.00;;
19193;SDS011;9729;52.296;13.260;2023-06-26T01:09:41;17.33;;;15.40;;
19193;SDS011;9729;52.296;13.260;2023-06-26T01:12:08;18.13;;;15.60;;
19193;SDS011;9729;52.296;13.260;2023-06-26T01:14:34;19.77;;;17.10;;
19193;SDS011;9729;52.296;13.260;2023-06-26T01:17:01;18.53;;;16.27;;
19193;SDS011;9729;52.296;13.260;2023-06-26T01:19:28;18.23;;;16.33;;
19193;SDS011;9729;52.296;13.260;2023-06-26T01:22:00;22.47;;;16.80;;
19193;SDS011;9729;52.296;13.260;2023-06-26T01:24:32;19.77;;;16.20;;
19193;SDS011;9729;52.296;13.260;2023-06-26T01:27:03;21.50;;;16.33;;
19193;SDS011;9729;52.296;13.260;2023-06-26T01:29:30;22.03;;;16.73;;
19193;SDS011;9729;52.296;13.260;2023-06-26T01:31:57;18.60;;;16.70;;
19193;SDS011;9729;52.296;13.260;2023-06-26T01:34:25;22.50;;;17.17;;
19193;SDS011;9729;52.296;13.260;2023-06-26T01:36:52;19.67;;;15.90;;
19193;SDS011;9729;52.296;13.260;2023-06-26T01:39:18;21.20;;;17.13;;
19193;SDS011;9729;52.296;13.260;2023-06-26T01:41:45;22.17;;;16.67;;
19193;SDS011;9729;52.296;13.260;2023-06-26T01:44:15;18.33;;;16.27;;
19193;SDS011;9729;52.296;13.260;2023-06-26T01:46:50;23.00;;;16.53;;
19193;SDS011;9729;52.296;13.260;2023-06-26T01:49:22;21.07;;;16.50;;
19193;SDS011;9729;52.296;13.260;2023-06-26T01:51:51;21.20;;;17.03;;
19193;SDS011;9729;52.296;13.260;2023-06-26T01:54:21;18.73;;;15.63;;
19193;SDS011;9729;52.296;13.260;2023-06-26T01:56:50;22.27;;;17.50;;
19193;SDS011;9729;52.296;13.260;2023-06-26T01:59:20;23.57;;;17.27;;
19193;SDS011;9729;52.296;13.260;2023-06-26T02:01:47;19.60;;;17.50;;
19193;SDS011;9729;52.296;13.260;2023-06-26T02:04:13;21.83;;;17.20;;
19193;SDS011;9729;52.296;13.260;2023-06-26T02:06:40;20.40;;;16.30;;
19193;SDS011;9729;52.296;13.260;2023-06-26T02:09:06;18.67;;;16.13;;
19193;SDS011;9729;52.296;13.260;2023-06-26T02:11:32;23.70;;;16.37;;
19193;SDS011;9729;52.296;13.260;2023-06-26T02:13:59;19.23;;;17.00;;
19193;SDS011;9729;52.296;13.260;2023-06-26T02:16:26;20.67;;;16.03;;
19193;SDS011;9729;52.296;13.260;2023-06-26T02:18:53;23.37;;;17.00;;
19193;SDS011;9729;52.296;13.260;2023-06-26T02:21:19;19.50;;;15.93;;
19193;SDS011;9729;52.296;13.260;2023-06-26T02:23:45;19.87;;;16.97;;
19193;SDS011;9729;52.296;13.260;2023-06-26T02:26:12;20.90;;;17.53;;
19193;SDS011;9729;52.296;13.260;2023-06-26T02:28:38;20.77;;;17.00;;
19193;SDS011;9729;52.296;13.260;2023-06-26T02:31:04;19.13;;;17.13;;
19193;SDS011;9729;52.296;13.260;2023-06-26T02:33:32;19.30;;;16.70;;
19193;SDS011;9729;52.296;13.260;2023-06-26T02:35:58;19.20;;;15.70;;
19193;SDS011;9729;52.296;13.260;2023-06-26T02:38:25;18.47;;;16.47;;
19193;SDS011;9729;52.296;13.260;2023-06-26T02:40:51;20.20;;;17.50;;
19193;SDS011;9729;52.296;13.260;2023-06-26T02:43:17;23.10;;;19.63;;
19193;SDS011;9729;52.296;13.260;2023-06-26T02:45:44;22.27;;;16.70;;
19193;SDS011;9729;52.296;13.260;2023-06-26T02:48:10;19.30;;;16.87;;
19193;SDS011;9729;52.296;13.260;2023-06-26T02:50:38;18.13;;;16.13;;
19193;SDS011;9729;52.296;13.260;2023-06-26T02:53:04;20.43;;;17.27;;
19193;SDS011;9729;52.296;13.260;2023-06-26T02:55:30;23.60;;;17.13;;
19193;SDS011;9729;52.296;13.260;2023-06-26T02:57:57;23.97;;;17.57;;
19193;SDS011;9729;52.296;13.260;2023-06-26T03:00:23;19.23;;;16.80;;
19193;SDS011;9729;52.296;13.260;2023-06-26T03:02:50;21.40;;;17.30;;
19193;SDS011;9729;52.296;13.260;2023-06-26T03:05:16;19.70;;;16.33;;
19193;SDS011;9729;52.296;13.260;2023-06-26T03:07:44;21.03;;;16.83;;
19193;SDS011;9729;52.296;13.260;2023-06-26T03:10:10;18.90;;;16.87;;
19193;SDS011;9729;52.296;13.260;2023-06-26T03:12:37;18.53;;;16.10;;
19193;SDS011;9729;52.296;13.260;2023-06-26T03:15:03;25.47;;;17.63;;
19193;SDS011;9729;52.296;13.260;2023-06-26T03:17:30;21.57;;;17.37;;
19193;SDS011;9729;52.296;13.260;2023-06-26T03:19:56;21.77;;;18.30;;
19193;SDS011;9729;52.296;13.260;2023-06-26T03:22:22;23.93;;;19.57;;
19193;SDS011;9729;52.296;13.260;2023-06-26T03:24:50;22.10;;;18.17;;
19193;SDS011;9729;52.296;13.260;2023-06-26T03:27:16;28.27;;;18.57;;
19193;SDS011;9729;52.296;13.260;2023-06-26T03:29:43;24.27;;;19.03;;
19193;SDS011;9729;52.296;13.260;2023-06-26T03:32:09;23.97;;;20.67;;
19193;SDS011;9729;52.296;13.260;2023-06-26T03:34:35;27.10;;;20.87;;
19193;SDS011;9729;52.296;13.260;2023-06-26T03:37:02;23.17;;;20.43;;
19193;SDS011;9729;52.296;13.260;2023-06-26T03:39:28;24.47;;;19.20;;
19193;SDS011;9729;52.296;13.260;2023-06-26T03:41:56;22.60;;;19.10;;
19193;SDS011;9729;52.296;13.260;2023-06-26T03:44:25;22.30;;;18.87;;
19193;SDS011;9729;52.296;13.260;2023-06-26T03:46:51;24.93;;;19.00;;
19193;SDS011;9729;52.296;13.260;2023-06-26T03:49:18;22.17;;;18.17;;
19193;SDS011;9729;52.296;13.260;2023-06-26T03:51:44;20.97;;;18.77;;
19193;SDS011;9729;52.296;13.260;2023-06-26T03:54:10;22.40;;;17.10;;
19193;SDS011;9729;52.296;13.260;2023-06-26T03:56:37;21.03;;;16.83;;
19193;SDS011;9729;52.296;13.260;2023-06-26T03:59:05;24.70;;;18.07;;
19193;SDS011;9729;52.296;13.260;2023-06-26T04:01:31;21.87;;;18.50;;
19193;SDS011;9729;52.296;13.260;2023-06-26T04:03:57;25.07;;;22.47;;
19193;SDS011;9729;52.296;13.260;2023-06-26T04:06:25;30.43;;;22.77;;
19193;SDS011;9729;52.296;13.260;2023-06-26T04:08:52;20.37;;;18.20;;
19193;SDS011;9729;52.296;13.260;2023-06-26T04:11:18;19.83;;;17.77;;
19193;SDS011;9729;52.296;13.260;2023-06-26T04:13:44;19.50;;;16.03;;
19193;SDS011;9729;52.296;13.260;2023-06-26T04:16:12;19.50;;;16.80;;
19193;SDS011;9729;52.296;13.260;2023-06-26T04:18:39;24.57;;;17.33;;
19193;SDS011;9729;52.296;13.260;2023-06-26T04:21:08;22.23;;;17.50;;
19193;SDS011;9729;52.296;13.260;2023-06-26T04:23:36;28.87;;;16.27;;
19193;SDS011;9729;52.296;13.260;2023-06-26T04:26:03;19.60;;;16.50;;
19193;SDS011;9729;52.296;13.260;2023-06-26T04:28:29;21.20;;;17.07;;
19193;SDS011;9729;52.296;13.260;2023-06-26T04:30:56;23.17;;;17.23;;
19193;SDS011;9729;52.296;13.260;2023-06-26T04:33:24;26.43;;;17.63;;
19193;SDS011;9729;52.296;13.260;2023-06-26T04:35:51;27.53;;;17.67;;
19193;SDS011;9729;52.296;13.260;2023-06-26T04:38:18;21.87;;;17.97;;
19193;SDS011;9729;52.296;13.260;2023-06-26T04:40:46;19.63;;;15.23;;
19193;SDS011;9729;52.296;13.260;2023-06-26T04:43:13;26.53;;;18.33;;
19193;SDS011;9729;52.296;13.260;2023-06-26T04:45:39;22.20;;;16.60;;
19193;SDS011;9729;52.296;13.260;2023-06-26T04:48:05;23.90;;;16.63;;
19193;SDS011;9729;52.296;13.260;2023-06-26T04:50:33;24.03;;;16.80;;
19193;SDS011;9729;52.296;13.260;2023-06-26T04:53:00;20.07;;;17.10;;
19193;SDS011;9729;52.296;13.260;2023-06-26T04:55:27;23.63;;;17.63;;
19193;SDS011;9729;52.296;13.260;2023-06-26T04:57:54;17.70;;;15.17;;
19193;SDS011;9729;52.296;13.260;2023-06-26T05:00:20;24.80;;;20.30;;
19193;SDS011;9729;52.296;13.260;2023-06-26T05:02:47;18.47;;;15.40;;
19193;SDS011;9729;52.296;13.260;2023-06-26T05:05:14;19.70;;;14.70;;
19193;SDS011;9729;52.296;13.260;2023-06-26T05:07:42;22.97;;;15.70;;
19193;SDS011;9729;52.296;13.260;2023-06-26T05:10:08;16.87;;;15.07;;
19193;SDS011;9729;52.296;13.260;2023-06-26T05:12:35;20.20;;;15.03;;
19193;SDS011;9729;52.296;13.260;2023-06-26T05:15:01;22.13;;;16.83;;
19193;SDS011;9729;52.296;13.260;2023-06-26T05:17:28;20.77;;;16.33;;
19193;SDS011;9729;52.296;13.260;2023-06-26T05:19:54;20.17;;;15.60;;
19193;SDS011;9729;52.296;13.260;2023-06-26T05:22:20;20.33;;;16.40;;
19193;SDS011;9729;52.296;13.260;2023-06-26T05:24:49;18.07;;;14.93;;
19193;SDS011;9729;52.296;13.260;2023-06-26T05:27:16;18.60;;;14.00;;
19193;SDS011;9729;52.296;13.260;2023-06-26T05:29:46;15.20;;;12.60;;
19193;SDS011;9729;52.296;13.260;2023-06-26T05:32:14;18.27;;;14.07;;
19193;SDS011;9729;52.296;13.260;2023-06-26T05:34:42;14.23;;;12.35;;
19193;SDS011;9729;52.296;13.260;2023-06-26T05:37:08;19.63;;;14.43;;
19193;SDS011;9729;52.296;13.260;2023-06-26T05:39:36;15.35;;;13.30;;
19193;SDS011;9729;52.296;13.260;2023-06-26T05:42:05;16.75;;;12.93;;
19193;SDS011;9729;52.296;13.260;2023-06-26T05:44:32;14.45;;;11.73;;
19193;SDS011;9729;52.296;13.260;2023-06-26T05:46:58;12.45;;;10.52;;
19193;SDS011;9729;52.296;13.260;2023-06-26T05:49:25;12.07;;;10.88;;
19193;SDS011;9729;52.296;13.260;2023-06-26T05:51:51;11.80;;;10.55;;
19193;SDS011;9729;52.296;13.260;2023-06-26T05:54:18;11.32;;;10.10;;
19193;SDS011;9729;52.296;13.260;2023-06-26T05:56:45;14.18;;;10.80;;
19193;SDS011;9729;52.296;13.260;2023-06-26T05:59:13;12.43;;;10.13;;
19193;SDS011;9729;52.296;13.260;2023-06-26T06:01:41;12.80;;;10.63;;
19193;SDS011;9729;52.296;13.260;2023-06-26T06:04:07;14.02;;;10.73;;
19193;SDS011;9729;52.296;13.260;2023-06-26T06:06:33;14.75;;;10.95;;
19193;SDS011;9729;52.296;13.260;2023-06-26T06:09:00;15.45;;;10.75;;
19193;SDS011;9729;52.296;13.260;2023-06-26T06:11:26;11.95;;;10.68;;
19193;SDS011;9729;52.296;13.260;2023-06-26T06:13:52;16.42;;;10.75;;
19193;SDS011;9729;52.296;13.260;2023-06-26T06:16:20;11.73;;;10.15;;
19193;SDS011;9729;52.296;13.260;2023-06-26T06:18:46;12.32;;;10.38;;
19193;SDS011;9729;52.296;13.260;2023-06-26T06:21:13;13.32;;;10.85;;
19193;SDS011;9729;52.296;13.260;2023-06-26T06:23:39;13.15;;;11.20;;
19193;SDS011;9729;52.296;13.260;2023-06-26T06:26:05;14.32;;;11.05;;
19193;SDS011;9729;52.296;13.260;2023-06-26T06:28:32;11.80;;;10.43;;
19193;SDS011;9729;52.296;13.260;2023-06-26T06:30:58;12.95;;;10.57;;
19193;SDS011;9729;52.296;13.260;2023-06-26T06:33:26;14.63;;;9.68;;
19193;SDS011;9729;52.296;13.260;2023-06-26T06:35:52;15.32;;;10.30;;
19193;SDS011;9729;52.296;13.260;2023-06-26T06:38:19;12.13;;;10.20;;
19193;SDS011;9729;52.296;13.260;2023-06-26T06:40:45;11.73;;;9.82;;
19193;SDS011;9729;52.296;13.260;2023-06-26T06:43:11;15.85;;;10.32;;
19193;SDS011;9729;52.296;13.260;2023-06-26T06:45:38;11.30;;;10.02;;
19193;SDS011;9729;52.296;13.260;2023-06-26T06:48:04;10.90;;;9.80;;
19193;SDS011;9729;52.296;13.260;2023-06-26T06:50:32;11.45;;;10.02;;
19193;SDS011;9729;52.296;13.260;2023-06-26T06:52:58;11.98;;;9.80;;
19193;SDS011;9729;52.296;13.260;2023-06-26T06:55:24;12.68;;;9.88;;
19193;SDS011;9729;52.296;13.260;2023-06-26T06:57:51;11.10;;;10.00;;
19193;SDS011;9729;52.296;13.260;2023-06-26T07:00:17;13.57;;;10.20;;
19193;SDS011;9729;52.296;13.260;2023-06-26T07:02:44;11.95;;;10.40;;
19193;SDS011;9729;52.296;13.260;2023-06-26T07:05:11;12.05;;;10.10;;
19193;SDS011;9729;52.296;13.260;2023-06-26T07:07:39;13.73;;;10.60;;
19193;SDS011;9729;52.296;13.260;2023-06-26T07:10:06;12.10;;;9.93;;
19193;SDS011;9729;52.296;13.260;2023-06-26T07:12:34;14.23;;;10.63;;
19193;SDS011;9729;52.296;13.260;2023-06-26T07:15:01;11.27;;;10.20;;
19193;SDS011;9729;52.296;13.260;2023-06-26T07:17:27;13.88;;;10.63;;
19193;SDS011;9729;52.296;13.260;2023-06-26T07:19:54;17.70;;;11.52;;
19193;SDS011;9729;52.296;13.260;2023-06-26T07:22:20;14.63;;;10.35;;
19193;SDS011;9729;52.296;13.260;2023-06-26T07:24:48;11.25;;;10.15;;
19193;SDS011;9729;52.296;13.260;2023-06-26T07:27:14;16.17;;;10.10;;
19193;SDS011;9729;52.296;13.260;2023-06-26T07:29:40;11.63;;;9.98;;
19193;SDS011;9729;52.296;13.260;2023-06-26T07:32:07;12.02;;;10.32;;
19193;SDS011;9729;52.296;13.260;2023-06-26T07:34:34;11.35;;;10.25;;
19193;SDS011;9729;52.296;13.260;2023-06-26T07:37:00;13.00;;;9.27;;
19193;SDS011;9729;52.296;13.260;2023-06-26T07:39:26;12.90;;;9.65;;
19193;SDS011;9729;52.296;13.260;2023-06-26T07:41:54;10.65;;;9.57;;
19193;SDS011;9729;52.296;13.260;2023-06-26T07:44:23;10.43;;;9.02;;
19193;SDS011;9729;52.296;13.260;2023-06-26T07:46:49;9.98;;;8.50;;
19193;SDS011;9729;52.296;13.260;2023-06-26T07:49:16;10.50;;;8.73;;
19193;SDS011;9729;52.296;13.260;2023-06-26T07:51:42;9.80;;;8.13;;
19193;SDS011;9729;52.296;13.260;2023-06-26T07:54:08;9.13;;;7.88;;
19193;SDS011;9729;52.296;13.260;2023-06-26T07:56:35;9.55;;;8.55;;
19193;SDS011;9729;52.296;13.260;2023-06-26T07:59:20;9.07;;;8.18;;
19193;SDS011;9729;52.296;13.260;2023-06-26T08:01:48;9.20;;;8.32;;
19193;SDS011;9729;52.296;13.260;2023-06-26T08:04:14;9.57;;;8.50;;
19193;SDS011;9729;52.296;13.260;2023-06-26T08:06:41;9.65;;;8.32;;
19193;SDS011;9729;52.296;13.260;2023-06-26T08:09:07;13.45;;;8.23;;
19193;SDS011;9729;52.296;13.260;2023-06-26T08:11:33;11.05;;;7.88;;
19193;SDS011;9729;52.296;13.260;2023-06-26T08:14:00;8.95;;;7.70;;
19193;SDS011;9729;52.296;13.260;2023-06-26T08:16:27;11.00;;;7.65;;
19193;SDS011;9729;52.296;13.260;2023-06-26T08:18:54;10.80;;;7.68;;
19193;SDS011;9729;52.296;13.260;2023-06-26T08:21:20;15.40;;;8.02;;
19193;SDS011;9729;52.296;13.260;2023-06-26T08:23:46;8.05;;;7.05;;
19193;SDS011;9729;52.296;13.260;2023-06-26T08:26:13;9.18;;;7.38;;
19193;SDS011;9729;52.296;13.260;2023-06-26T08:28:39;12.43;;;7.57;;
19193;SDS011;9729;52.296;13.260;2023-06-26T08:31:06;10.32;;;7.28;;
19193;SDS011;9729;52.296;13.260;2023-06-26T08:33:33;7.57;;;6.88;;
19193;SDS011;9729;52.296;13.260;2023-06-26T08:36:00;7.90;;;7.00;;
19193;SDS011;9729;52.296;13.260;2023-06-26T08:38:26;11.88;;;6.75;;
19193;SDS011;9729;52.296;13.260;2023-06-26T08:40:53;7.70;;;7.00;;
19193;SDS011;9729;52.296;13.260;2023-06-26T08:43:19;7.80;;;6.90;;
19193;SDS011;9729;52.296;13.260;2023-06-26T08:45:47;7.63;;;6.93;;
19193;SDS011;9729;52.296;13.260;2023-06-26T08:48:16;7.65;;;6.35;;
19193;SDS011;9729;52.296;13.260;2023-06-26T08:50:44;6.88;;;6.28;;
19193;SDS011;9729;52.296;13.260;2023-06-26T08:53:14;8.55;;;7.07;;
19193;SDS011;9729;52.296;13.260;2023-06-26T08:55:45;7.57;;;6.50;;
19193;SDS011;9729;52.296;13.260;2023-06-26T08:58:12;11.57;;;6.35;;
19193;SDS011;9729;52.296;13.260;2023-06-26T09:00:38;6.15;;;5.47;;
19193;SDS011;9729;52.296;13.260;2023-06-26T09:03:05;8.27;;;5.93;;
19193;SDS011;9729;52.296;13.260;2023-06-26T09:05:31;6.80;;;6.30;;
19193;SDS011;9729;52.296;13.260;2023-06-26T09:07:59;6.72;;;6.20;;
19193;SDS011;9729;52.296;13.260;2023-06-26T09:10:25;6.68;;;6.07;;
19193;SDS011;9729;52.296;13.260;2023-06-26T09:12:54;6.82;;;6.22;;
19193;SDS011;9729;52.296;13.260;2023-06-26T09:15:21;7.40;;;6.70;;
19193;SDS011;9729;52.296;13.260;2023-06-26T09:17:48;6.30;;;5.78;;
19193;SDS011;9729;52.296;13.260;2023-06-26T09:20:14;8.02;;;6.32;;
19193;SDS011;9729;52.296;13.260;2023-06-26T09:22:41;7.22;;;6.55;;
19193;SDS011;9729;52.296;13.260;2023-06-26T09:25:10;7.25;;;6.65;;
19193;SDS011;9729;52.296;13.260;2023-06-26T09:27:37;14.68;;;7.63;;
19193;SDS011;9729;52.296;13.260;2023-06-26T09:30:03;6.72;;;5.97;;
19193;SDS011;9729;52.296;13.260;2023-06-26T09:32:33;9.18;;;6.40;;
19193;SDS011;9729;52.296;13.260;2023-06-26T09:35:00;6.20;;;5.70;;
19193;SDS011;9729;52.296;13.260;2023-06-26T09:37:28;6.57;;;5.93;;
19193;SDS011;9729;52.296;13.260;2023-06-26T09:39:54;6.72;;;6.13;;
19193;SDS011;9729;52.296;13.260;2023-06-26T09:42:22;6.35;;;5.85;;
19193;SDS011;9729;52.296;13.260;2023-06-26T09:44:49;6.30;;;5.60;;
19193;SDS011;9729;52.296;13.260;2023-06-26T09:47:16;9.00;;;6.00;;
19193;SDS011;9729;52.296;13.260;2023-06-26T09:49:43;6.97;;;5.65;;
19193;SDS011;9729;52.296;13.260;2023-06-26T09:52:10;7.15;;;5.10;;
19193;SDS011;9729;52.296;13.260;2023-06-26T09:54:40;11.10;;;5.68;;
19193;SDS011;9729;52.296;13.260;2023-06-26T09:57:09;6.05;;;5.00;;
19193;SDS011;9729;52.296;13.260;2023-06-26T09:59:37;10.55;;;6.05;;
19193;SDS011;9729;52.296;13.260;2023-06-26T10:02:03;7.43;;;5.35;;
19193;SDS011;9729;52.296;13.260;2023-06-26T10:04:30;5.50;;;5.10;;
19193;SDS011;9729;52.296;13.260;2023-06-26T10:06:57;6.85;;;5.53;;
19193;SDS011;9729;52.296;13.260;2023-06-26T10:09:24;9.43;;;5.40;;
19193;SDS011;9729;52.296;13.260;2023-06-26T10:11:51;6.80;;;6.15;;
19193;SDS011;9729;52.296;13.260;2023-06-26T10:14:21;7.18;;;6.13;;
19193;SDS011;9729;52.296;13.260;2023-06-26T10:16:49;6.25;;;5.20;;
19193;SDS011;9729;52.296;13.260;2023-06-26T10:19:17;6.53;;;5.63;;
19193;SDS011;9729;52.296;13.260;2023-06-26T10:21:48;7.78;;;5.28;;
19193;SDS011;9729;52.296;13.260;2023-06-26T10:24:16;6.05;;;5.45;;
19193;SDS011;9729;52.296;13.260;2023-06-26T10:26:44;6.15;;;5.65;;
19193;SDS011;9729;52.296;13.260;2023-06-26T10:29:11;5.85;;;5.38;;
19193;SDS011;9729;52.296;13.260;2023-06-26T10:31:38;6.75;;;6.03;;
19193;SDS011;9729;52.296;13.260;2023-06-26T10:34:06;7.05;;;6.45;;
19193;SDS011;9729;52.296;13.260;2023-06-26T10:36:32;6.75;;;6.13;;
19193;SDS011;9729;52.296;13.260;2023-06-26T10:39:03;6.43;;;5.78;;
19193;SDS011;9729;52.296;13.260;2023-06-26T10:41:35;7.93;;;5.13;;
19193;SDS011;9729;52.296;13.260;2023-06-26T10:44:06;6.80;;;6.00;;
19193;SDS011;9729;52.296;13.260;2023-06-26T10:46:34;6.38;;;5.78;;
19193;SDS011;9729;52.296;13.260;2023-06-26T10:49:15;7.13;;;6.43;;
19193;SDS011;9729;52.296;13.260;2023-06-26T10:51:45;6.75;;;6.10;;
19193;SDS011;9729;52.296;13.260;2023-06-26T10:54:13;8.38;;;5.97;;
19193;SDS011;9729;52.296;13.260;2023-06-26T10:56:41;9.52;;;5.65;;
19193;SDS011;9729;52.296;13.260;2023-06-26T10:59:13;6.25;;;5.75;;
19193;SDS011;9729;52.296;13.260;2023-06-26T11:01:41;5.82;;;5.32;;
19193;SDS011;9729;52.296;13.260;2023-06-26T11:04:08;6.13;;;5.25;;
19193;SDS011;9729;52.296;13.260;2023-06-26T11:06:37;6.65;;;5.57;;
19193;SDS011;9729;52.296;13.260;2023-06-26T11:09:08;9.68;;;6.15;;
19193;SDS011;9729;52.296;13.260;2023-06-26T11:11:55;5.88;;;5.38;;
19193;SDS011;9729;52.296;13.260;2023-06-26T11:14:24;8.48;;;5.88;;
19193;SDS011;9729;52.296;13.260;2023-06-26T11:16:51;6.13;;;5.63;;
19193;SDS011;9729;52.296;13.260;2023-06-26T11:19:18;6.20;;;5.60;;
19193;SDS011;9729;52.296;13.260;2023-06-26T11:21:46;9.32;;;6.68;;
19193;SDS011;9729;52.296;13.260;2023-06-26T11:24:13;7.60;;;6.20;;
19193;SDS011;9729;52.296;13.260;2023-06-26T11:26:40;6.78;;;6.18;;
19193;SDS011;9729;52.296;13.260;2023-06-26T11:29:07;7.03;;;6.38;;
19193;SDS011;9729;52.296;13.260;2023-06-26T11:31:34;7.80;;;6.13;;
19193;SDS011;9729;52.296;13.260;2023-06-26T11:34:02;6.95;;;6.43;;
19193;SDS011;9729;52.296;13.260;2023-06-26T11:36:30;8.80;;;6.85;;
19193;SDS011;9729;52.296;13.260;2023-06-26T11:38:58;7.18;;;6.50;;
19193;SDS011;9729;52.296;13.260;2023-06-26T11:41:25;7.40;;;6.70;;
19193;SDS011;9729;52.296;13.260;2023-06-26T11:43:52;8.27;;;7.47;;
19193;SDS011;9729;52.296;13.260;2023-06-26T11:46:19;7.57;;;6.88;;
19193;SDS011;9729;52.296;13.260;2023-06-26T11:48:46;7.28;;;6.68;;
19193;SDS011;9729;52.296;13.260;2023-06-26T11:51:13;8.07;;;7.38;;
19193;SDS011;9729;52.296;13.260;2023-06-26T11:53:40;8.45;;;6.60;;
19193;SDS011;9729;52.296;13.260;2023-06-26T11:56:09;7.28;;;6.68;;
19193;SDS011;9729;52.296;13.260;2023-06-26T11:58:35;8.10;;;7.40;;
19193;SDS011;9729;52.296;13.260;2023-06-26T12:01:02;8.27;;;7.50;;
19193;SDS011;9729;52.296;13.260;2023-06-26T12:03:29;7.70;;;7.00;;
19193;SDS011;9729;52.296;13.260;2023-06-26T12:05:55;9.23;;;7.38;;
19193;SDS011;9729;52.296;13.260;2023-06-26T12:08:22;9.68;;;7.85;;
19193;SDS011;9729;52.296;13.260;2023-06-26T12:10:48;8.07;;;7.25;;
19193;SDS011;9729;52.296;13.260;2023-06-26T12:13:16;9.93;;;7.70;;
19193;SDS011;9729;52.296;13.260;2023-06-26T12:15:43;7.90;;;7.10;;
19193;SDS011;9729;52.296;13.260;2023-06-26T12:18:09;7.97;;;7.22;;
19193;SDS011;9729;52.296;13.260;2023-06-26T12:20:39;8.20;;;6.97;;
19193;SDS011;9729;52.296;13.260;2023-06-26T12:23:11;8.65;;;7.47;;
19193;SDS011;9729;52.296;13.260;2023-06-26T12:25:38;9.57;;;8.35;;
19193;SDS011;9729;52.296;13.260;2023-06-26T12:28:14;15.20;;;7.80;;
19193;SDS011;9729;52.296;13.260;2023-06-26T12:30:45;8.57;;;7.70;;
19193;SDS011;9729;52.296;13.260;2023-06-26T12:33:12;8.20;;;7.45;;
19193;SDS011;9729;52.296;13.260;2023-06-26T12:35:39;8.27;;;7.45;;
19193;SDS011;9729;52.296;13.260;2023-06-26T12:38:06;12.55;;;7.75;;
19193;SDS011;9729;52.296;13.260;2023-06-26T12:40:34;10.68;;;7.22;;
19193;SDS011;9729;52.296;13.260;2023-06-26T12:43:01;8.05;;;7.25;;
19193;SDS011;9729;52.296;13.260;2023-06-26T12:45:29;9.68;;;7.85;;
19193;SDS011;9729;52.296;13.260;2023-06-26T12:48:06;10.23;;;7.35;;
19193;SDS011;9729;52.296;13.260;2023-06-26T12:50:36;7.97;;;7.28;;
19193;SDS011;9729;52.296;13.260;2023-06-26T12:53:04;26.08;;;8.20;;
19193;SDS011;9729;52.296;13.260;2023-06-26T12:55:30;8.80;;;7.78;;
19193;SDS011;9729;52.296;13.260;2023-06-26T12:57:56;9.73;;;7.22;;
19193;SDS011;9729;52.296;13.260;2023-06-26T13:00:23;7.93;;;7.18;;
19193;SDS011;9729;52.296;13.260;2023-06-26T13:02:51;8.00;;;7.30;;
19193;SDS011;9729;52.296;13.260;2023-06-26T13:05:18;9.95;;;7.75;;
19193;SDS011;9729;52.296;13.260;2023-06-26T13:07:44;10.25;;;7.25;;
19193;SDS011;9729;52.296;13.260;2023-06-26T13:10:10;7.68;;;6.82;;
19193;SDS011;9729;52.296;13.260;2023-06-26T13:12:37;8.43;;;7.50;;
19193;SDS011;9729;52.296;13.260;2023-06-26T13:15:03;9.50;;;6.60;;
19193;SDS011;9729;52.296;13.260;2023-06-26T13:17:30;7.72;;;7.00;;
19193;SDS011;9729;52.296;13.260;2023-06-26T13:19:58;7.72;;;7.03;;
19193;SDS011;9729;52.296;13.260;2023-06-26T13:22:24;8.93;;;6.95;;
19193;SDS011;9729;52.296;13.260;2023-06-26T13:24:51;7.63;;;6.93;;
19193;SDS011;9729;52.296;13.260;2023-06-26T13:27:17;12.90;;;6.97;;
19193;SDS011;9729;52.296;13.260;2023-06-26T13:29:45;7.32;;;6.70;;
19193;SDS011;9729;52.296;13.260;2023-06-26T13:32:11;9.13;;;7.22;;
19193;SDS011;9729;52.296;13.260;2023-06-26T13:34:38;7.72;;;7.03;;
19193;SDS011;9729;52.296;13.260;2023-06-26T13:37:05;7.30;;;6.63;;
19193;SDS011;9729;52.296;13.260;2023-06-26T13:39:32;7.13;;;6.43;;
19193;SDS011;9729;52.296;13.260;2023-06-26T13:41:58;9.85;;;7.25;;
19193;SDS011;9729;52.296;13.260;2023-06-26T13:44:25;8.13;;;7.43;;
19193;SDS011;9729;52.296;13.260;2023-06-26T13:46:51;9.07;;;8.18;;
19193;SDS011;9729;52.296;13.260;2023-06-26T13:49:18;8.20;;;7.38;;
19193;SDS011;9729;52.296;13.260;2023-06-26T13:51:44;7.97;;;7.28;;
19193;SDS011;9729;52.296;13.260;2023-06-26T13:54:14;9.57;;;7.90;;
19193;SDS011;9729;52.296;13.260;2023-06-26T13:56:40;8.93;;;7.78;;
19193;SDS011;9729;52.296;13.260;2023-06-26T13:59:07;8.75;;;7.90;;
19193;SDS011;9729;52.296;13.260;2023-06-26T14:01:33;7.95;;;7.25;;
19193;SDS011;9729;52.296;13.260;2023-06-26T14:03:59;15.32;;;8.30;;
19193;SDS011;9729;52.296;13.260;2023-06-26T14:06:26;8.70;;;7.90;;
19193;SDS011;9729;52.296;13.260;2023-06-26T14:08:52;8.73;;;7.72;;
19193;SDS011;9729;52.296;13.260;2023-06-26T14:11:20;11.90;;;8.38;;
19193;SDS011;9729;52.296;13.260;2023-06-26T14:13:47;8.70;;;7.80;;
19193;SDS011;9729;52.296;13.260;2023-06-26T14:16:14;8.48;;;7.68;;
19193;SDS011;9729;52.296;13.260;2023-06-26T14:18:43;12.32;;;8.55;;
19193;SDS011;9729;52.296;13.260;2023-06-26T14:21:10;8.75;;;7.85;;
19193;SDS011;9729;52.296;13.260;2023-06-26T14:23:36;8.80;;;7.90;;
19193;SDS011;9729;52.296;13.260;2023-06-26T14:26:02;8.25;;;7.50;;
19193;SDS011;9729;52.296;13.260;2023-06-26T14:28:30;13.27;;;7.70;;
19193;SDS011;9729;52.296;13.260;2023-06-26T14:30:56;13.32;;;6.75;;
19193;SDS011;9729;52.296;13.260;2023-06-26T14:33:23;10.85;;;8.23;;